New Mount Pleasant, Indiana
Current Conditions -  °F | °C
As of 2:13 PM on Monday 20 Oct 2014 (Local Time) from KMIE Reporting Station
Broken Clouds Broken Clouds  
Wind Chill: 57°   Ceiling: 2100
Heat Index: 57°   Visibility: 10mi
Dew Point: 51°   Wind: 10mph
Humidity: 81%   Direction: 240°WSW
Pressure: 29.84"   Gusts: NA
Location:  40.4312°N, 85.0058°W
Report Text: KMIE 201813Z 24009KT 10SM BKN021 BKN060 BKN085 14/11 A2984 RMK AO2 LTG DSNT E T01390106
Loading
Personal Weather Stations






























Interactive Weather Map
Tropical Storm Tracking
New forecast layout! Learn more

10-Day Weather Forecast

Advertisements
Track Severe Weather on mobile